Time;durP1;ratioP1;P1;durP2;ratioP2;P2;SDS_P1;SDS_P2;PMS_P1;PMS_P2;Temp;Humidity;BMP_temperature;BMP_pressure;BME280_temperature;BME280_humidity;BME280_pressure;Samples;Min_cycle;Max_cycle;Signal;HPM_P1;HPM_P2
2021/08/03 16:03:36;;;;;;;1.40;1.20;;;22.50;97.30;;;;;;6257702;22;1341847;-68
2021/08/03 16:06:03;;;;;;;2.43;1.60;;;22.40;96.50;;;;;;6313239;22;20212;-69
2021/08/03 16:08:32;;;;;;;1.27;1.17;;;22.30;98.00;;;;;;6312927;22;20415;-69
2021/08/03 16:10:59;;;;;;;1.30;1.27;;;22.30;98.00;;;;;;6312986;22;20960;-71
2021/08/03 16:13:27;;;;;;;1.20;1.10;;;22.20;97.30;;;;;;6341182;22;20402;-71
2021/08/03 16:15:57;;;;;;;1.20;1.10;;;22.00;97.40;;;;;;6344590;22;20395;-68
2021/08/03 16:18:26;;;;;;;1.30;1.30;;;22.10;98.00;;;;;;6344583;22;20448;-68
2021/08/03 16:20:56;;;;;;;1.30;1.20;;;22.10;98.00;;;;;;6343639;22;20460;-68
2021/08/03 16:23:28;;;;;;;1.20;1.10;;;22.20;98.00;;;;;;6345382;22;20402;-68
2021/08/03 16:25:55;;;;;;;1.20;1.20;;;22.30;98.00;;;;;;6344423;22;20406;-68
2021/08/03 16:28:22;;;;;;;1.40;1.10;;;22.00;98.00;;;;;;6344225;22;20432;-68
2021/08/03 16:30:52;;;;;;;1.20;1.10;;;21.70;98.00;;;;;;6343798;22;20405;-68
2021/08/03 16:33:22;;;;;;;1.20;1.10;;;21.60;98.00;;;;;;6344525;22;20448;-67
2021/08/03 16:35:57;;;;;;;1.60;1.30;;;21.60;98.00;;;;;;6344558;22;20397;-68
2021/08/03 16:38:25;;;;;;;1.50;1.20;;;21.40;98.00;;;;;;6343656;22;20915;-68
2021/08/03 16:40:56;;;;;;;1.20;1.07;;;21.40;98.00;;;;;;6344029;22;20395;-67
2021/08/03 16:43:24;;;;;;;1.20;1.10;;;21.50;98.00;;;;;;6344258;22;20448;-68
2021/08/03 16:45:51;;;;;;;1.20;1.20;;;21.50;98.00;;;;;;6344669;22;20395;-68
2021/08/03 16:48:19;;;;;;;1.20;1.10;;;21.40;98.00;;;;;;6344404;22;20449;-68
2021/08/03 16:50:47;;;;;;;1.20;1.10;;;21.30;98.00;;;;;;6310289;22;20435;-68
2021/08/03 16:53:18;;;;;;;1.30;1.20;;;21.20;98.00;;;;;;6337084;22;20405;-68
2021/08/03 16:55:47;;;;;;;1.20;1.10;;;21.10;98.00;;;;;;6337309;22;20449;-68
2021/08/03 16:58:14;;;;;;;1.20;1.10;;;21.00;98.00;;;;;;6282026;22;20443;-68
2021/08/03 17:00:48;;;;;;;1.60;1.20;;;20.80;98.00;;;;;;6335897;22;20399;-68
2021/08/03 17:03:25;;;;;;;1.20;1.10;;;20.80;98.00;;;;;;6336898;22;20422;-68
2021/08/03 17:05:56;;;;;;;1.20;1.20;;;20.70;98.00;;;;;;6337499;22;20426;-68
2021/08/03 17:08:30;;;;;;;1.20;1.20;;;20.60;98.00;;;;;;6337379;22;20401;-68
2021/08/03 17:11:00;;;;;;;1.20;1.10;;;20.70;98.00;;;;;;6336734;22;20398;-68
2021/08/03 17:13:40;;;;;;;1.50;1.20;;;20.70;98.00;;;;;;6336751;22;20395;-68
2021/08/03 17:16:11;;;;;;;1.20;1.10;;;20.60;98.00;;;;;;6337491;22;20482;-68
2021/08/03 17:18:51;;;;;;;1.30;1.20;;;20.50;98.00;;;;;;6337077;22;20506;-68
2021/08/03 17:21:24;;;;;;;1.30;1.20;;;20.50;98.00;;;;;;6311302;22;20502;-68
2021/08/03 17:24:02;;;;;;;1.20;1.17;;;20.40;98.00;;;;;;6336642;22;20486;-68
2021/08/03 17:26:32;;;;;;;1.23;1.20;;;20.40;98.00;;;;;;6309262;22;20811;-68
2021/08/03 17:29:00;;;;;;;1.20;1.10;;;20.20;98.00;;;;;;6336277;22;21044;-68
2021/08/03 17:31:28;;;;;;;1.30;1.30;;;20.10;98.00;;;;;;6336531;22;20399;-68
2021/08/03 17:33:56;;;;;;;1.20;1.10;;;20.00;98.00;;;;;;6336639;22;20841;-68
2021/08/03 17:36:24;;;;;;;1.20;1.10;;;19.90;98.00;;;;;;6337110;22;20396;-68
2021/08/03 17:38:53;;;;;;;1.20;1.20;;;19.90;98.00;;;;;;6336509;22;20449;-68
2021/08/03 17:41:23;;;;;;;1.53;1.20;;;19.90;98.00;;;;;;6336689;22;20399;-68
2021/08/03 17:43:50;;;;;;;1.20;1.10;;;19.80;98.00;;;;;;6336991;22;20460;-68
2021/08/03 17:46:21;;;;;;;1.30;1.10;;;19.80;98.00;;;;;;6336937;22;20399;-68
2021/08/03 17:48:50;;;;;;;1.50;1.20;;;19.70;98.00;;;;;;6308645;22;20422;-68
2021/08/03 17:51:25;;;;;;;1.40;1.10;;;19.70;98.00;;;;;;6335606;22;20449;-68
2021/08/03 17:53:55;;;;;;;1.30;1.20;;;19.70;98.00;;;;;;6336938;22;20411;-68
2021/08/03 17:56:27;;;;;;;1.20;1.10;;;19.70;98.00;;;;;;6336928;22;20427;-68
2021/08/03 17:58:57;;;;;;;1.20;1.10;;;19.60;98.00;;;;;;6336692;22;20423;-68
2021/08/03 18:01:24;;;;;;;1.80;1.37;;;19.50;98.00;;;;;;6336145;22;20406;-68
2021/08/03 18:03:53;;;;;;;1.30;1.10;;;19.60;98.00;;;;;;6336576;22;20395;-68
2021/08/03 18:06:21;;;;;;;1.20;1.10;;;19.50;98.00;;;;;;6336561;22;20395;-67
2021/08/03 18:08:51;;;;;;;1.20;1.10;;;19.50;98.00;;;;;;6336793;22;20733;-68
2021/08/03 18:11:19;;;;;;;1.20;1.10;;;19.40;98.00;;;;;;6336314;22;20468;-68
2021/08/03 18:13:46;;;;;;;1.20;1.10;;;19.40;98.00;;;;;;6308924;22;20707;-68
2021/08/03 18:16:16;;;;;;;1.20;1.20;;;19.30;98.00;;;;;;6308907;22;20415;-67
2021/08/03 18:18:47;;;;;;;1.70;1.40;;;19.30;98.00;;;;;;6336184;22;20454;-68
2021/08/03 18:21:14;;;;;;;1.30;1.13;;;19.30;98.00;;;;;;6335186;22;20438;-68
2021/08/03 18:23:42;;;;;;;1.30;1.20;;;19.30;98.00;;;;;;6346440;22;20419;-68
2021/08/03 18:26:14;;;;;;;1.40;1.30;;;19.40;98.00;;;;;;6335555;22;20911;-68
2021/08/03 18:28:56;;;;;;;1.53;1.20;;;19.40;98.00;;;;;;6335736;22;20388;-68
2021/08/03 18:31:26;;;;;;;1.33;1.20;;;19.30;98.00;;;;;;6336742;22;20402;-68
2021/08/03 18:33:59;;;;;;;1.30;1.23;;;19.40;98.00;;;;;;6336777;22;20478;-68
2021/08/03 18:36:32;;;;;;;1.20;1.10;;;19.40;98.00;;;;;;6336589;22;20418;-68
2021/08/03 18:39:03;;;;;;;1.40;1.20;;;19.30;98.00;;;;;;6335590;22;20426;-68
2021/08/03 18:41:35;;;;;;;1.20;1.10;;;19.40;98.00;;;;;;6336629;22;20427;-68
2021/08/03 18:44:08;;;;;;;1.20;1.10;;;19.40;98.00;;;;;;6336259;22;20431;-68
2021/08/03 18:46:36;;;;;;;1.30;1.30;;;19.20;98.00;;;;;;6336562;22;20478;-68
2021/08/03 18:49:05;;;;;;;1.20;1.10;;;19.30;98.00;;;;;;6335921;22;21109;-68
2021/08/03 18:51:32;;;;;;;1.20;1.10;;;19.30;98.00;;;;;;6336850;22;20456;-68
2021/08/03 18:54:02;;;;;;;1.20;1.10;;;19.20;98.00;;;;;;6336634;22;20464;-68
2021/08/03 18:56:30;;;;;;;1.50;1.33;;;19.20;98.00;;;;;;6336495;22;20400;-68
2021/08/03 18:58:58;;;;;;;1.20;1.10;;;19.00;98.00;;;;;;6336529;22;20427;-68
2021/08/03 19:01:28;;;;;;;1.20;1.10;;;18.90;98.00;;;;;;6335707;22;20438;-68
2021/08/03 19:03:58;;;;;;;1.23;1.10;;;18.80;98.00;;;;;;6336170;22;20457;-68
2021/08/03 19:06:33;;;;;;;1.30;1.13;;;18.70;98.00;;;;;;6337064;22;20788;-68
2021/08/03 19:09:07;;;;;;;1.20;1.10;;;18.80;98.00;;;;;;6336235;22;20449;-67
2021/08/03 19:11:39;;;;;;;1.20;1.07;;;18.70;98.00;;;;;;6336138;22;20399;-68
2021/08/03 19:14:10;;;;;;;1.30;1.20;;;18.80;98.00;;;;;;6335620;22;20445;-68
2021/08/03 19:16:40;;;;;;;1.30;1.20;;;18.80;98.00;;;;;;6336273;22;20612;-68
2021/08/03 19:19:09;;;;;;;1.20;1.00;;;18.80;98.00;;;;;;6335674;22;20492;-68
2021/08/03 19:21:39;;;;;;;2.23;1.60;;;18.80;98.00;;;;;;6335755;22;20434;-69
2021/08/03 19:24:09;;;;;;;1.20;1.10;;;18.70;98.00;;;;;;6335938;22;20452;-69
2021/08/03 19:26:39;;;;;;;1.30;1.20;;;18.80;98.00;;;;;;6336250;22;20927;-69
2021/08/03 19:29:07;;;;;;;1.53;1.13;;;18.80;98.00;;;;;;6336204;22;20750;-69
2021/08/03 19:31:40;;;;;;;1.30;1.10;;;18.80;98.00;;;;;;6336083;22;20401;-69
2021/08/03 19:34:08;;;;;;;1.23;1.10;;;18.80;98.00;;;;;;6336071;22;20396;-69
2021/08/03 19:36:38;;;;;;;1.40;1.17;;;18.80;98.00;;;;;;6335970;22;20452;-69
2021/08/03 19:39:06;;;;;;;2.53;1.50;;;18.80;98.00;;;;;;6308056;22;20443;-69
2021/08/03 19:41:34;;;;;;;1.20;1.10;;;18.80;98.00;;;;;;6335962;22;20395;-68
2021/08/03 19:44:01;;;;;;;1.40;1.20;;;18.80;98.00;;;;;;6335940;22;20419;-68
2021/08/03 19:46:29;;;;;;;1.80;1.60;;;18.80;98.00;;;;;;6336019;22;20836;-68
2021/08/03 19:49:02;;;;;;;1.20;1.13;;;18.70;98.00;;;;;;6308761;22;20388;-68
2021/08/03 19:51:31;;;;;;;1.37;1.30;;;18.80;98.00;;;;;;6334931;22;20399;-68
2021/08/03 19:53:59;;;;;;;1.57;1.53;;;18.70;98.00;;;;;;6335997;22;20404;-68
2021/08/03 19:56:28;;;;;;;1.80;1.57;;;18.70;98.00;;;;;;6336023;22;20425;-68
2021/08/03 19:58:59;;;;;;;1.50;1.20;;;18.70;98.00;;;;;;6335455;22;20861;-68
2021/08/03 20:01:27;;;;;;;1.30;1.30;;;18.70;98.00;;;;;;6335610;22;21114;-69
2021/08/03 20:03:54;;;;;;;1.50;1.20;;;18.50;98.00;;;;;;6336379;22;20446;-68
2021/08/03 20:06:26;;;;;;;1.20;1.10;;;18.60;98.00;;;;;;6336559;22;20399;-68
2021/08/03 20:08:53;;;;;;;1.40;1.30;;;18.60;98.00;;;;;;6336148;22;20399;-68
2021/08/03 20:11:22;;;;;;;1.47;1.33;;;18.70;98.00;;;;;;6335754;22;20438;-68
2021/08/03 20:13:49;;;;;;;1.20;1.13;;;18.60;98.00;;;;;;6336127;22;20399;-69
2021/08/03 20:16:19;;;;;;;1.20;1.10;;;18.60;98.00;;;;;;6335875;22;20395;-69
2021/08/03 20:18:47;;;;;;;1.40;1.37;;;18.50;98.00;;;;;;6335669;22;20411;-69
2021/08/03 20:21:14;;;;;;;1.30;1.20;;;18.60;98.00;;;;;;6335286;22;20453;-70
2021/08/03 20:23:42;;;;;;;1.50;1.30;;;18.60;98.00;;;;;;6336125;22;20399;-69
2021/08/03 20:26:11;;;;;;;1.20;1.10;;;18.40;98.00;;;;;;6337527;22;20445;-69
2021/08/03 20:28:46;;;;;;;1.30;1.30;;;18.40;98.00;;;;;;6337746;22;20431;-72
2021/08/03 20:31:14;;;;;;;1.40;1.20;;;18.30;98.00;;;;;;6310486;22;20922;-72
2021/08/03 20:33:46;;;;;;;1.20;1.20;;;18.40;98.00;;;;;;6310217;22;20422;-71
2021/08/03 20:36:14;;;;;;;1.30;1.30;;;18.30;98.00;;;;;;6339068;22;20428;-69
2021/08/03 20:38:47;;;;;;;1.20;1.10;;;18.30;98.00;;;;;;6338812;22;20399;-69
2021/08/03 20:41:14;;;;;;;1.30;1.20;;;18.40;98.00;;;;;;6339038;22;20427;-69
2021/08/03 20:43:43;;;;;;;1.73;1.40;;;18.40;98.00;;;;;;6311560;22;20395;-70
2021/08/03 20:46:12;;;;;;;1.20;1.20;;;18.20;98.00;;;;;;6339011;22;20402;-69
2021/08/03 20:48:39;;;;;;;1.30;1.20;;;18.00;98.00;;;;;;6311389;22;20395;-69
2021/08/03 20:51:08;;;;;;;1.40;1.40;;;18.10;98.00;;;;;;6338904;22;20448;-69
2021/08/03 20:53:37;;;;;;;1.50;1.27;;;18.00;98.00;;;;;;6348905;22;20414;-69
2021/08/03 20:56:06;;;;;;;1.27;1.23;;;18.00;98.00;;;;;;6338966;22;20403;-69
2021/08/03 20:58:34;;;;;;;1.20;1.20;;;17.80;98.00;;;;;;6338788;22;20457;-69
2021/08/03 21:01:11;;;;;;;1.20;1.10;;;17.90;98.00;;;;;;6338744;22;20427;-69
2021/08/03 21:03:48;;;;;;;2.00;1.47;;;17.80;98.00;;;;;;6338253;22;20459;-69
2021/08/03 21:06:17;;;;;;;1.60;1.50;;;17.80;98.00;;;;;;6338473;22;20452;-69
2021/08/03 21:08:49;;;;;;;1.20;1.10;;;17.90;98.00;;;;;;6338661;22;20395;-69
2021/08/03 21:11:18;;;;;;;1.57;1.20;;;17.80;98.00;;;;;;6311147;22;20445;-69
2021/08/03 21:13:51;;;;;;;1.20;1.20;;;17.80;98.00;;;;;;6338536;22;20392;-69
2021/08/03 21:16:18;;;;;;;1.33;1.30;;;17.80;98.00;;;;;;6339420;22;20391;-69
2021/08/03 21:18:45;;;;;;;1.43;1.17;;;17.80;98.00;;;;;;6338910;22;20399;-69
2021/08/03 21:21:12;;;;;;;1.47;1.30;;;17.90;98.00;;;;;;6338817;22;20484;-69
2021/08/03 21:23:39;;;;;;;1.20;1.10;;;17.80;98.00;;;;;;6338864;22;20425;-69
2021/08/03 21:26:09;;;;;;;1.40;1.20;;;17.70;98.00;;;;;;6338880;22;20399;-70
2021/08/03 21:28:39;;;;;;;1.30;1.30;;;17.70;98.00;;;;;;6339056;22;20423;-69
2021/08/03 21:31:06;;;;;;;1.40;1.33;;;17.70;98.00;;;;;;6339053;22;20454;-69
2021/08/03 21:33:33;;;;;;;1.20;1.20;;;17.70;98.00;;;;;;6338824;22;20501;-69
2021/08/03 21:36:00;;;;;;;1.20;1.20;;;17.70;98.00;;;;;;6338439;22;20403;-69
2021/08/03 21:38:28;;;;;;;1.70;1.30;;;17.50;98.00;;;;;;6338681;22;20395;-69
2021/08/03 21:40:55;;;;;;;1.70;1.20;;;17.50;98.00;;;;;;6338791;22;20430;-69
2021/08/03 21:43:22;;;;;;;1.20;1.20;;;17.40;98.00;;;;;;6338023;22;20387;-69
2021/08/03 21:45:53;;;;;;;1.20;1.10;;;17.50;98.00;;;;;;6338579;22;20420;-69
2021/08/03 21:48:20;;;;;;;1.20;1.10;;;17.40;98.00;;;;;;6338798;22;20449;-69
2021/08/03 21:50:48;;;;;;;1.83;1.27;;;17.40;98.00;;;;;;6338423;22;20395;-69
2021/08/03 21:53:16;;;;;;;1.20;1.10;;;17.30;98.00;;;;;;6338306;22;20388;-69
2021/08/03 21:55:43;;;;;;;1.20;1.10;;;17.30;98.00;;;;;;6338200;22;20446;-69
2021/08/03 21:58:11;;;;;;;1.87;1.10;;;17.40;98.00;;;;;;6337997;22;20438;-69
2021/08/03 22:00:38;;;;;;;2.40;1.20;;;17.40;98.00;;;;;;6338092;22;20427;-69
2021/08/03 22:03:07;;;;;;;1.30;1.10;;;17.60;98.00;;;;;;6310863;22;20484;-70
2021/08/03 22:05:34;;;;;;;1.60;1.30;;;17.70;98.00;;;;;;6337979;22;20435;-70
2021/08/03 22:08:01;;;;;;;1.23;1.20;;;17.70;98.00;;;;;;6338154;22;20414;-70
2021/08/03 22:10:28;;;;;;;1.20;1.10;;;17.70;98.00;;;;;;6338307;22;20751;-70
2021/08/03 22:12:55;;;;;;;1.40;1.23;;;17.70;98.00;;;;;;6310569;22;20456;-70
2021/08/03 22:15:22;;;;;;;1.20;1.10;;;17.70;98.00;;;;;;6338184;22;20403;-70
2021/08/03 22:17:49;;;;;;;1.20;1.20;;;17.70;98.00;;;;;;6338026;22;20488;-70
2021/08/03 22:20:18;;;;;;;1.90;1.60;;;17.70;98.00;;;;;;6337793;22;20477;-70
2021/08/03 22:22:45;;;;;;;2.47;1.30;;;17.70;98.00;;;;;;6337932;22;20399;-70
2021/08/03 22:25:14;;;;;;;1.20;1.20;;;17.80;98.00;;;;;;6338254;22;20767;-70
2021/08/03 22:27:41;;;;;;;1.73;1.20;;;17.80;98.00;;;;;;6337875;22;20395;-68
2021/08/03 22:30:09;;;;;;;1.40;1.13;;;17.70;98.00;;;;;;6338171;22;20395;-68
2021/08/03 22:32:35;;;;;;;1.83;1.30;;;17.60;98.00;;;;;;6338314;22;20418;-68
2021/08/03 22:35:03;;;;;;;1.67;1.10;;;17.70;98.00;;;;;;6337359;22;20454;-68
2021/08/03 22:37:31;;;;;;;1.30;1.20;;;17.50;98.00;;;;;;6337982;22;20395;-68
2021/08/03 22:39:59;;;;;;;1.50;1.10;;;17.40;98.00;;;;;;6337789;22;20477;-68
2021/08/03 22:42:26;;;;;;;1.40;1.30;;;17.40;98.00;;;;;;6338025;22;20395;-68
2021/08/03 22:44:53;;;;;;;1.40;1.10;;;17.50;98.00;;;;;;6310190;22;20414;-68
2021/08/03 22:47:20;;;;;;;1.30;1.30;;;17.50;98.00;;;;;;6337769;22;20431;-68
2021/08/03 22:49:47;;;;;;;1.30;1.20;;;17.50;98.00;;;;;;6338328;22;20438;-68
2021/08/03 22:52:14;;;;;;;1.20;1.20;;;17.40;98.00;;;;;;6337820;22;20861;-67
2021/08/03 22:54:43;;;;;;;1.30;1.10;;;17.40;98.00;;;;;;6338365;22;20395;-68
2021/08/03 22:57:10;;;;;;;1.30;1.20;;;17.40;98.00;;;;;;6337733;22;20426;-68
2021/08/03 22:59:37;;;;;;;1.30;1.13;;;17.30;98.00;;;;;;6337991;22;20724;-68
2021/08/03 23:02:05;;;;;;;1.50;1.30;;;17.30;98.00;;;;;;6337963;22;21034;-68
2021/08/03 23:04:33;;;;;;;1.20;1.20;;;17.30;98.00;;;;;;6337647;22;20411;-68
2021/08/03 23:07:00;;;;;;;1.30;1.10;;;17.30;98.00;;;;;;6337904;22;20396;-68
2021/08/03 23:09:27;;;;;;;1.20;1.10;;;17.20;98.00;;;;;;6337657;22;20395;-68
2021/08/03 23:11:55;;;;;;;1.63;1.30;;;17.20;98.00;;;;;;6309675;22;20410;-68
2021/08/03 23:14:22;;;;;;;1.20;1.10;;;17.30;98.00;;;;;;6337804;22;20399;-68
2021/08/03 23:16:49;;;;;;;1.30;1.20;;;17.30;98.00;;;;;;6337429;22;20453;-68
2021/08/03 23:19:16;;;;;;;1.40;1.27;;;17.30;98.00;;;;;;6337297;22;20430;-68
2021/08/03 23:21:44;;;;;;;2.23;1.40;;;17.20;98.00;;;;;;6337824;22;20423;-68
2021/08/03 23:24:13;;;;;;;1.40;1.20;;;17.30;98.00;;;;;;6337266;22;20394;-68
2021/08/03 23:26:39;;;;;;;1.67;1.30;;;17.30;98.00;;;;;;6337792;22;20418;-68
2021/08/03 23:29:08;;;;;;;1.30;1.17;;;17.30;98.00;;;;;;6336430;22;20752;-68
2021/08/03 23:31:35;;;;;;;1.40;1.20;;;17.30;98.00;;;;;;6337329;22;20391;-68
2021/08/03 23:34:03;;;;;;;1.60;1.40;;;17.30;98.00;;;;;;6337347;22;20461;-68
2021/08/03 23:36:31;;;;;;;2.03;1.30;;;17.30;98.00;;;;;;6336849;22;21026;-68
2021/08/03 23:38:58;;;;;;;1.93;1.33;;;17.40;98.00;;;;;;6336882;22;20406;-68
2021/08/03 23:41:25;;;;;;;1.40;1.30;;;17.30;98.00;;;;;;6283923;22;20992;-68
2021/08/03 23:43:52;;;;;;;1.50;1.10;;;17.40;98.00;;;;;;6337976;22;20399;-68
2021/08/03 23:46:21;;;;;;;1.20;1.10;;;17.40;98.00;;;;;;6337489;22;20449;-68
2021/08/03 23:48:48;;;;;;;1.30;1.20;;;17.50;98.00;;;;;;6337724;22;20503;-68
2021/08/03 23:51:16;;;;;;;1.40;1.10;;;17.50;98.00;;;;;;6337496;22;20434;-68
2021/08/03 23:53:43;;;;;;;1.20;1.10;;;17.50;98.00;;;;;;6337657;22;20777;-68
2021/08/03 23:56:10;;;;;;;1.20;1.10;;;17.40;98.00;;;;;;6337347;22;20399;-68
2021/08/03 23:58:38;;;;;;;1.20;1.00;;;17.40;98.00;;;;;;6338037;22;20730;-68
